Madeline — WDE3220 — position and weather

sailwx.info

Track history (hours):
 
Tides and Currents Weather Stations Pressure Air Temp Water Temp Dewpoint Dewpoint Depression Visibility Wind Speed Wind Dir Waves Ship Positions

Madeline

Owner: TUG MADELINE, LLC, NEW CASTLE, DE. More information available from US FCC via Universal Licensing System and Coast Guard Vessel Documentation Center.

Last reported at 2016-May-29 14:33 UTC. Time now 2016-May-29 15:21 UTC.
Position N 39°51' W 075°16'.

; draft 4.6 m.

Type: Tug. MMSI: 367335830.

Date/timePositionNaut miles runAvg speedWind from/ knotsBaromVisibWave heightAir tempDewpointWater temp
2016-May-29 14:33N 39°51' W 075°16'0 0.0
2016-May-29 13:33N 39°51' W 075°16'3 2.9
2016-May-29 12:33N 39°52' W 075°12'2 2.2
2016-May-29 11:33N 39°53' W 075°10'2 1.9
2016-May-29 10:33N 39°53' W 075°12'1 1.0
2016-May-29 09:33N 39°53' W 075°11'0 0.0
2016-May-29 08:33N 39°53' W 075°11'0 0.0
2016-May-29 07:33N 39°53' W 075°11'0 0.0
2016-May-29 06:33N 39°53' W 075°11'0 0.0
2016-May-29 05:33N 39°53' W 075°11'0 0.0
2016-May-29 04:33N 39°53' W 075°11'0 0.0
2016-May-29 03:33N 39°53' W 075°11'0 0.0
2016-May-29 02:33N 39°53' W 075°11'0 0.0
2016-May-29 01:33N 39°53' W 075°11'7 6.8
2016-May-29 00:34N 39°59' W 075°06'0 0.5
2016-May-28 23:33N 39°59' W 075°05'1 0.5
2016-May-28 22:34N 39°59' W 075°06'0 0.0
2016-May-28 21:30N 39°59' W 075°06'3 3.5
2016-May-28 20:33N 39°56' W 075°08'7 7.1
2016-May-28 19:33N 39°51' W 075°15'1 0.9
2016-May-28 18:33N 39°51' W 075°16'5 4.8
2016-May-28 17:33N 39°53' W 075°11'5 5.0
2016-May-28 16:33N 39°57' W 075°08'2 1.9
2016-May-28 15:33N 39°59' W 075°06'0 0.0
2016-May-28 14:33N 39°59' W 075°06'0 0.0
2016-May-28 13:34N 39°59' W 075°06'0 0.0
2016-May-28 12:33N 39°59' W 075°06'0 0.0
2016-May-28 11:33N 39°59' W 075°06'0 0.0
2016-May-28 10:33N 39°59' W 075°06'0 0.0
2016-May-28 09:33N 39°59' W 075°06'0 0.0
2016-May-28 08:33N 39°59' W 075°06'1 0.6
2016-May-28 07:33N 39°59' W 075°05'4 4.3
2016-May-28 06:33N 39°55' W 075°08'3 3.0
2016-May-28 05:33N 39°53' W 075°11'0 0.0
2016-May-28 04:33N 39°53' W 075°11'0 0.0
2016-May-28 03:33N 39°53' W 075°11'0 0.0
2016-May-28 02:33N 39°53' W 075°11'0 0.0
2016-May-28 01:34N 39°53' W 075°11'0 0.0
2016-May-28 00:33N 39°53' W 075°11'4 3.6
2016-May-27 23:33N 39°56' W 075°08'3 3.3
2016-May-27 22:33N 39°59' W 075°06'0 0.1
2016-May-27 21:33N 39°59' W 075°05'0 0.0
2016-May-27 20:33N 39°59' W 075°05'0 0.0
2016-May-27 19:33N 39°59' W 075°05'0 0.0
2016-May-27 18:33N 39°59' W 075°05'0 0.0
2016-May-27 17:33N 39°59' W 075°05'0 0.0
2016-May-27 16:33N 39°59' W 075°05'0 0.0
2016-May-27 15:33N 39°59' W 075°05'0 0.0
2016-May-27 14:33N 39°59' W 075°05'0 0.0
2016-May-27 13:33N 39°59' W 075°05'0 0.0
2016-May-27 12:33N 39°59' W 075°05'0 0.0
2016-May-27 11:33N 39°59' W 075°05'0 0.0
2016-May-27 10:33N 39°59' W 075°05'0 0.0
2016-May-27 09:33N 39°59' W 075°05'0 0.0
2016-May-27 08:33N 39°59' W 075°05'0 0.0
2016-May-27 07:33N 39°59' W 075°05'0 0.0
2016-May-27 06:33N 39°59' W 075°05'0 0.0
2016-May-27 05:33N 39°59' W 075°05'0 0.0
2016-May-27 04:33N 39°59' W 075°05'0 0.0
2016-May-27 03:33N 39°59' W 075°05'0 0.0
2016-May-27 02:33N 39°59' W 075°05'0 0.0
2016-May-27 01:33N 39°59' W 075°05'6 5.9
2016-May-27 00:33N 40°02' W 074°59'6 1.4
2016-May-26 20:28N 40°05' W 074°52'1011.1
2016-May-26 19:33N 39°60' W 075°04'9 8.6
2016-May-26 18:34N 39°53' W 075°11'0 0.1
2016-May-26 17:33N 39°53' W 075°11'0 0.0
2016-May-26 16:33N 39°53' W 075°11'0 0.0
2016-May-26 15:33N 39°53' W 075°11'0 0.0
2016-May-26 14:33N 39°53' W 075°11'0 0.0
2016-May-26 13:33N 39°53' W 075°11'0 0.0
2016-May-26 12:33N 39°53' W 075°11'0 0.0
2016-May-26 11:33N 39°53' W 075°11'0 0.0
2016-May-26 10:33N 39°53' W 075°11'0 0.0
2016-May-26 09:33N 39°53' W 075°11'0 0.0
2016-May-26 08:33N 39°53' W 075°11'0 0.0
2016-May-26 07:33N 39°53' W 075°11'0 0.0
2016-May-26 06:33N 39°53' W 075°11'0 0.0
2016-May-26 05:33N 39°53' W 075°11'0 0.0
2016-May-26 04:33N 39°53' W 075°11'0 0.0
2016-May-26 03:33N 39°53' W 075°11'0 0.0
2016-May-26 02:33N 39°53' W 075°11'0 0.0
2016-May-26 01:33N 39°53' W 075°11'0 0.0
2016-May-26 00:33N 39°53' W 075°11'4 4.2
2016-May-25 23:33N 39°51' W 075°16'0 0.1
2016-May-25 22:33N 39°51' W 075°16'0 0.0
2016-May-25 21:33N 39°51' W 075°16'2 2.4
2016-May-25 20:33N 39°52' W 075°13'0 0.0
2016-May-25 19:33N 39°52' W 075°13'0 0.1
2016-May-25 18:33N 39°52' W 075°13'3 2.8
2016-May-25 17:33N 39°53' W 075°09'2 1.5
2016-May-25 16:33N 39°54' W 075°08'0 0.0
2016-May-25 15:33N 39°54' W 075°08'0 0.0
2016-May-25 14:33N 39°54' W 075°08'0 0.0
2016-May-25 13:33N 39°54' W 075°08'2 2.1
2016-May-25 12:33N 39°53' W 075°10'5 4.9
2016-May-25 11:33N 39°51' W 075°16'1 0.7
2016-May-25 10:33N 39°51' W 075°17'1 1.0
2016-May-25 09:33N 39°51' W 075°16'0 0.0
2016-May-25 08:33N 39°51' W 075°16'2 2.4
2016-May-25 07:33N 39°52' W 075°13'4 4.2
2016-May-25 06:33N 39°54' W 075°08'2 2.4
2016-May-25 05:34N 39°53' W 075°11'0 0.0
2016-May-25 04:34N 39°53' W 075°11'0 0.0
2016-May-25 03:33N 39°53' W 075°11'0 0.0
2016-May-25 02:33N 39°53' W 075°11'0 0.0
2016-May-25 01:34N 39°53' W 075°11'0 0.0
2016-May-25 00:33N 39°53' W 075°11'0 0.0
2016-May-24 23:34N 39°53' W 075°11'5 4.5
2016-May-24 22:33N 39°51' W 075°16'5 4.6
2016-May-24 21:33N 39°53' W 075°11'0 0.0
2016-May-24 20:33N 39°53' W 075°11'0 0.0
2016-May-24 19:33N 39°53' W 075°11'0 0.0
2016-May-24 18:33N 39°53' W 075°11'1 0.8
2016-May-24 17:33N 39°53' W 075°10'7 6.7
2016-May-24 16:33N 39°59' W 075°06'1 1.0
2016-May-24 15:33N 39°58' W 075°07'2 2.4
2016-May-24 14:33N 39°56' W 075°08'0 0.0
2016-May-24 13:33N 39°56' W 075°08'6 5.6
2016-May-24 12:33N 39°52' W 075°13'3 2.6
2016-May-24 11:34N 39°51' W 075°16'0 0.0
2016-May-24 10:33N 39°51' W 075°16'0 0.0
2016-May-24 09:33N 39°51' W 075°16'0 0.3
2016-May-24 08:33N 39°51' W 075°16'0 0.2
2016-May-24 07:33N 39°51' W 075°16'2 2.4
2016-May-24 06:33N 39°52' W 075°13'0 0.2
2016-May-24 05:34N 39°52' W 075°13'2 2.0
2016-May-24 04:34N 39°53' W 075°11'0 0.0
2016-May-24 03:33N 39°53' W 075°11'0 0.0
2016-May-24 02:33N 39°53' W 075°11'0 0.0
2016-May-24 01:34N 39°53' W 075°11'0 0.0
2016-May-24 00:33N 39°53' W 075°11'0 0.0
2016-May-23 23:33N 39°53' W 075°11'0 0.0
2016-May-23 22:33N 39°53' W 075°11'0 0.0
2016-May-23 21:33N 39°53' W 075°11'0 0.0
2016-May-23 20:33N 39°53' W 075°11'2 2.4
2016-May-23 19:34N 39°54' W 075°08'0 0.1
2016-May-23 18:33N 39°54' W 075°08'0 0.0
2016-May-23 17:33N 39°54' W 075°08'0 0.0
2016-May-23 16:33N 39°54' W 075°08'0 0.0
2016-May-23 15:33N 39°54' W 075°08'0 0.0
2016-May-23 14:33N 39°54' W 075°08'0 0.0
2016-May-23 13:33N 39°54' W 075°08'0 0.0
2016-May-23 12:33N 39°54' W 075°08'0 0.0
2016-May-23 11:33N 39°54' W 075°08'0 0.1
2016-May-23 10:33N 39°54' W 075°08'1 1.0
2016-May-23 09:34N 39°53' W 075°09'1 1.2
2016-May-23 08:34N 39°54' W 075°08'0 0.1
2016-May-23 07:33N 39°54' W 075°08'0 0.0
2016-May-23 06:33N 39°54' W 075°08'0 0.0
2016-May-23 05:33N 39°54' W 075°08'0 0.0
2016-May-23 04:33N 39°54' W 075°08'0 0.0
2016-May-23 03:33N 39°54' W 075°08'0 0.0
2016-May-23 02:33N 39°54' W 075°08'0 0.0
2016-May-23 01:33N 39°54' W 075°08'0 0.0
2016-May-23 00:33N 39°54' W 075°08'0 0.0
2016-May-22 23:33N 39°54' W 075°08'0 0.0
2016-May-22 22:33N 39°54' W 075°08'0 0.0
2016-May-22 21:33N 39°54' W 075°08'0 0.0
2016-May-22 20:33N 39°54' W 075°08'0 0.0
2016-May-22 19:33N 39°54' W 075°08'0 0.0
2016-May-22 18:33N 39°54' W 075°08'0 0.0
2016-May-22 17:34N 39°54' W 075°08'0 0.4
2016-May-22 16:33N 39°54' W 075°08'0 0.0
2016-May-22 15:33N 39°54' W 075°08'0 0.0
2016-May-22 14:33N 39°54' W 075°08'5 4.6
2016-May-22 13:33N 39°58' W 075°06'9 9.3
2016-May-22 12:33N 40°04' W 074°57'9 8.1
2016-May-22 11:28N 40°08' W 074°46'1 0.7
2016-May-22 10:27N 40°07' W 074°47'2 0.2
2016-May-22 01:20N 40°08' W 074°45'7 8.2
2016-May-22 00:33N 40°05' W 074°53'10 9.9
2016-May-21 23:33N 39°60' W 075°04'7 6.7
2016-May-21 22:33N 39°54' W 075°08'3 2.5
2016-May-21 21:33N 39°53' W 075°11'0 0.0
2016-May-21 20:33N 39°53' W 075°11'0 0.0
2016-May-21 19:33N 39°53' W 075°11'0 0.0
2016-May-21 18:33N 39°53' W 075°11'4 4.4
2016-May-21 17:33N 39°51' W 075°16'0 0.2
2016-May-21 16:34N 39°51' W 075°16'0 0.0
2016-May-21 15:33N 39°51' W 075°16'0 0.0
2016-May-21 14:33N 39°51' W 075°16'0 0.3
2016-May-21 13:33N 39°51' W 075°16'0 0.3
2016-May-21 12:33N 39°51' W 075°16'0 0.0
2016-May-21 11:33N 39°51' W 075°16'4 3.7
2016-May-21 10:33N 39°51' W 075°21'0 0.4
2016-May-21 09:34N 39°51' W 075°20'7 7.2
2016-May-21 08:33N 39°53' W 075°11'0 0.0
2016-May-21 07:33N 39°53' W 075°11'0 0.0
2016-May-21 06:33N 39°53' W 075°11'0 0.0
2016-May-21 05:33N 39°53' W 075°11'0 0.0
2016-May-21 04:33N 39°53' W 075°11'0 0.0
2016-May-21 03:33N 39°53' W 075°11'0 0.0
2016-May-21 02:33N 39°53' W 075°11'0 0.0
2016-May-21 01:33N 39°53' W 075°11'0 0.0
2016-May-21 00:33N 39°53' W 075°11'0 0.0
2016-May-20 23:33N 39°53' W 075°11'0 0.0
2016-May-20 22:33N 39°53' W 075°11'1 1.2
2016-May-20 21:33N 39°53' W 075°10'1 1.2
2016-May-20 20:33N 39°53' W 075°11'5 4.5
2016-May-20 19:33N 39°51' W 075°16'2 1.6
2016-May-20 18:33N 39°51' W 075°18'4 4.1
2016-May-20 17:33N 39°52' W 075°13'2 1.9
2016-May-20 16:33N 39°53' W 075°11'0 0.0
2016-May-20 15:33N 39°53' W 075°11'0 0.0
2016-May-20 14:33N 39°53' W 075°11'0 0.0
2016-May-20 13:33N 39°53' W 075°11'0 0.0
2016-May-20 12:33N 39°53' W 075°11'0 0.0
2016-May-20 11:33N 39°53' W 075°11'0 0.0
2016-May-20 10:33N 39°53' W 075°11'0 0.0
2016-May-20 09:33N 39°53' W 075°11'0 0.0
2016-May-20 08:33N 39°53' W 075°11'0 0.0
2016-May-20 07:33N 39°53' W 075°11'0 0.0
2016-May-20 06:33N 39°53' W 075°11'0 0.0
2016-May-20 05:33N 39°53' W 075°11'0 0.0
2016-May-20 04:33N 39°53' W 075°11'0 0.0
2016-May-20 03:33N 39°53' W 075°11'0 0.0
2016-May-20 02:33N 39°53' W 075°11'0 0.0
2016-May-20 01:33N 39°53' W 075°11'1 1.3
2016-May-20 00:33N 39°53' W 075°10'0 0.1
2016-May-19 23:33N 39°53' W 075°10'2 2.3
2016-May-19 22:33N 39°52' W 075°13'1 1.4
2016-May-19 21:33N 39°53' W 075°11'0 0.0
2016-May-19 20:33N 39°53' W 075°11'0 0.0
2016-May-19 19:33N 39°53' W 075°11'0 0.0
2016-May-19 18:33N 39°53' W 075°11'0 0.0
2016-May-19 17:33N 39°53' W 075°11'0 0.0
2016-May-19 16:33N 39°53' W 075°11'0 0.0
2016-May-19 15:33N 39°53' W 075°11'0 0.0
2016-May-19 14:34N 39°53' W 075°11'  
Track history (hours):
 
Tides and Currents Weather Stations Pressure Air Temp Water Temp Dewpoint Dewpoint Depression Visibility Wind Speed Wind Dir Waves Ship Positions

Madeline

Owner: TUG MADELINE, LLC, NEW CASTLE, DE. More information available from US FCC via Universal Licensing System and Coast Guard Vessel Documentation Center.

Last reported at 2016-May-29 14:33 UTC. Time now 2016-May-29 15:21 UTC.
Position N 39°51' W 075°16'.

; draft 4.6 m.

Type: Tug. MMSI: 367335830.

Date/timePositionNaut miles runAvg speedWind from/ knotsBaromVisibWave heightAir tempDewpointWater temp
2016-May-29 14:33N 39°51' W 075°16'0 0.0
2016-May-29 13:33N 39°51' W 075°16'3 2.9
2016-May-29 12:33N 39°52' W 075°12'2 2.2
2016-May-29 11:33N 39°53' W 075°10'2 1.9
2016-May-29 10:33N 39°53' W 075°12'1 1.0
2016-May-29 09:33N 39°53' W 075°11'0 0.0
2016-May-29 08:33N 39°53' W 075°11'0 0.0
2016-May-29 07:33N 39°53' W 075°11'0 0.0
2016-May-29 06:33N 39°53' W 075°11'0 0.0
2016-May-29 05:33N 39°53' W 075°11'0 0.0
2016-May-29 04:33N 39°53' W 075°11'0 0.0
2016-May-29 03:33N 39°53' W 075°11'0 0.0
2016-May-29 02:33N 39°53' W 075°11'0 0.0
2016-May-29 01:33N 39°53' W 075°11'7 6.8
2016-May-29 00:34N 39°59' W 075°06'0 0.5
2016-May-28 23:33N 39°59' W 075°05'1 0.5
2016-May-28 22:34N 39°59' W 075°06'0 0.0
2016-May-28 21:30N 39°59' W 075°06'3 3.5
2016-May-28 20:33N 39°56' W 075°08'7 7.1
2016-May-28 19:33N 39°51' W 075°15'1 0.9
2016-May-28 18:33N 39°51' W 075°16'5 4.8
2016-May-28 17:33N 39°53' W 075°11'5 5.0
2016-May-28 16:33N 39°57' W 075°08'2 1.9
2016-May-28 15:33N 39°59' W 075°06'0 0.0
2016-May-28 14:33N 39°59' W 075°06'0 0.0
2016-May-28 13:34N 39°59' W 075°06'0 0.0
2016-May-28 12:33N 39°59' W 075°06'0 0.0
2016-May-28 11:33N 39°59' W 075°06'0 0.0
2016-May-28 10:33N 39°59' W 075°06'0 0.0
2016-May-28 09:33N 39°59' W 075°06'0 0.0
2016-May-28 08:33N 39°59' W 075°06'1 0.6
2016-May-28 07:33N 39°59' W 075°05'4 4.3
2016-May-28 06:33N 39°55' W 075°08'3 3.0
2016-May-28 05:33N 39°53' W 075°11'0 0.0
2016-May-28 04:33N 39°53' W 075°11'0 0.0
2016-May-28 03:33N 39°53' W 075°11'0 0.0
2016-May-28 02:33N 39°53' W 075°11'0 0.0
2016-May-28 01:34N 39°53' W 075°11'0 0.0
2016-May-28 00:33N 39°53' W 075°11'4 3.6
2016-May-27 23:33N 39°56' W 075°08'3 3.3
2016-May-27 22:33N 39°59' W 075°06'0 0.1
2016-May-27 21:33N 39°59' W 075°05'0 0.0
2016-May-27 20:33N 39°59' W 075°05'0 0.0
2016-May-27 19:33N 39°59' W 075°05'0 0.0
2016-May-27 18:33N 39°59' W 075°05'0 0.0
2016-May-27 17:33N 39°59' W 075°05'0 0.0
2016-May-27 16:33N 39°59' W 075°05'0 0.0
2016-May-27 15:33N 39°59' W 075°05'0 0.0
2016-May-27 14:33N 39°59' W 075°05'0 0.0
2016-May-27 13:33N 39°59' W 075°05'0 0.0
2016-May-27 12:33N 39°59' W 075°05'0 0.0
2016-May-27 11:33N 39°59' W 075°05'0 0.0
2016-May-27 10:33N 39°59' W 075°05'0 0.0
2016-May-27 09:33N 39°59' W 075°05'0 0.0
2016-May-27 08:33N 39°59' W 075°05'0 0.0
2016-May-27 07:33N 39°59' W 075°05'0 0.0
2016-May-27 06:33N 39°59' W 075°05'0 0.0
2016-May-27 05:33N 39°59' W 075°05'0 0.0
2016-May-27 04:33N 39°59' W 075°05'0 0.0
2016-May-27 03:33N 39°59' W 075°05'0 0.0
2016-May-27 02:33N 39°59' W 075°05'0 0.0
2016-May-27 01:33N 39°59' W 075°05'6 5.9
2016-May-27 00:33N 40°02' W 074°59'6 1.4
2016-May-26 20:28N 40°05' W 074°52'1011.1
2016-May-26 19:33N 39°60' W 075°04'9 8.6
2016-May-26 18:34N 39°53' W 075°11'0 0.1
2016-May-26 17:33N 39°53' W 075°11'0 0.0
2016-May-26 16:33N 39°53' W 075°11'0 0.0
2016-May-26 15:33N 39°53' W 075°11'0 0.0
2016-May-26 14:33N 39°53' W 075°11'0 0.0
2016-May-26 13:33N 39°53' W 075°11'0 0.0
2016-May-26 12:33N 39°53' W 075°11'0 0.0
2016-May-26 11:33N 39°53' W 075°11'0 0.0
2016-May-26 10:33N 39°53' W 075°11'0 0.0
2016-May-26 09:33N 39°53' W 075°11'0 0.0
2016-May-26 08:33N 39°53' W 075°11'0 0.0
2016-May-26 07:33N 39°53' W 075°11'0 0.0
2016-May-26 06:33N 39°53' W 075°11'0 0.0
2016-May-26 05:33N 39°53' W 075°11'0 0.0
2016-May-26 04:33N 39°53' W 075°11'0 0.0
2016-May-26 03:33N 39°53' W 075°11'0 0.0
2016-May-26 02:33N 39°53' W 075°11'0 0.0
2016-May-26 01:33N 39°53' W 075°11'0 0.0
2016-May-26 00:33N 39°53' W 075°11'4 4.2
2016-May-25 23:33N 39°51' W 075°16'0 0.1
2016-May-25 22:33N 39°51' W 075°16'0 0.0
2016-May-25 21:33N 39°51' W 075°16'2 2.4
2016-May-25 20:33N 39°52' W 075°13'0 0.0
2016-May-25 19:33N 39°52' W 075°13'0 0.1
2016-May-25 18:33N 39°52' W 075°13'3 2.8
2016-May-25 17:33N 39°53' W 075°09'2 1.5
2016-May-25 16:33N 39°54' W 075°08'0 0.0
2016-May-25 15:33N 39°54' W 075°08'0 0.0
2016-May-25 14:33N 39°54' W 075°08'0 0.0
2016-May-25 13:33N 39°54' W 075°08'2 2.1
2016-May-25 12:33N 39°53' W 075°10'5 4.9
2016-May-25 11:33N 39°51' W 075°16'1 0.7
2016-May-25 10:33N 39°51' W 075°17'1 1.0
2016-May-25 09:33N 39°51' W 075°16'0 0.0
2016-May-25 08:33N 39°51' W 075°16'2 2.4
2016-May-25 07:33N 39°52' W 075°13'4 4.2
2016-May-25 06:33N 39°54' W 075°08'2 2.4
2016-May-25 05:34N 39°53' W 075°11'0 0.0
2016-May-25 04:34N 39°53' W 075°11'0 0.0
2016-May-25 03:33N 39°53' W 075°11'0 0.0
2016-May-25 02:33N 39°53' W 075°11'0 0.0
2016-May-25 01:34N 39°53' W 075°11'0 0.0
2016-May-25 00:33N 39°53' W 075°11'0 0.0
2016-May-24 23:34N 39°53' W 075°11'5 4.5
2016-May-24 22:33N 39°51' W 075°16'5 4.6
2016-May-24 21:33N 39°53' W 075°11'0 0.0
2016-May-24 20:33N 39°53' W 075°11'0 0.0
2016-May-24 19:33N 39°53' W 075°11'0 0.0
2016-May-24 18:33N 39°53' W 075°11'1 0.8
2016-May-24 17:33N 39°53' W 075°10'7 6.7
2016-May-24 16:33N 39°59' W 075°06'1 1.0
2016-May-24 15:33N 39°58' W 075°07'2 2.4
2016-May-24 14:33N 39°56' W 075°08'0 0.0
2016-May-24 13:33N 39°56' W 075°08'6 5.6
2016-May-24 12:33N 39°52' W 075°13'3 2.6
2016-May-24 11:34N 39°51' W 075°16'0 0.0
2016-May-24 10:33N 39°51' W 075°16'0 0.0
2016-May-24 09:33N 39°51' W 075°16'0 0.3
2016-May-24 08:33N 39°51' W 075°16'0 0.2
2016-May-24 07:33N 39°51' W 075°16'2 2.4
2016-May-24 06:33N 39°52' W 075°13'0 0.2
2016-May-24 05:34N 39°52' W 075°13'2 2.0
2016-May-24 04:34N 39°53' W 075°11'0 0.0
2016-May-24 03:33N 39°53' W 075°11'0 0.0
2016-May-24 02:33N 39°53' W 075°11'0 0.0
2016-May-24 01:34N 39°53' W 075°11'0 0.0
2016-May-24 00:33N 39°53' W 075°11'0 0.0
2016-May-23 23:33N 39°53' W 075°11'0 0.0
2016-May-23 22:33N 39°53' W 075°11'0 0.0
2016-May-23 21:33N 39°53' W 075°11'0 0.0
2016-May-23 20:33N 39°53' W 075°11'2 2.4
2016-May-23 19:34N 39°54' W 075°08'0 0.1
2016-May-23 18:33N 39°54' W 075°08'0 0.0
2016-May-23 17:33N 39°54' W 075°08'0 0.0
2016-May-23 16:33N 39°54' W 075°08'0 0.0
2016-May-23 15:33N 39°54' W 075°08'0 0.0
2016-May-23 14:33N 39°54' W 075°08'0 0.0
2016-May-23 13:33N 39°54' W 075°08'0 0.0
2016-May-23 12:33N 39°54' W 075°08'0 0.0
2016-May-23 11:33N 39°54' W 075°08'0 0.1
2016-May-23 10:33N 39°54' W 075°08'1 1.0
2016-May-23 09:34N 39°53' W 075°09'1 1.2
2016-May-23 08:34N 39°54' W 075°08'0 0.1
2016-May-23 07:33N 39°54' W 075°08'0 0.0
2016-May-23 06:33N 39°54' W 075°08'0 0.0
2016-May-23 05:33N 39°54' W 075°08'0 0.0
2016-May-23 04:33N 39°54' W 075°08'0 0.0
2016-May-23 03:33N 39°54' W 075°08'0 0.0
2016-May-23 02:33N 39°54' W 075°08'0 0.0
2016-May-23 01:33N 39°54' W 075°08'0 0.0
2016-May-23 00:33N 39°54' W 075°08'0 0.0
2016-May-22 23:33N 39°54' W 075°08'0 0.0
2016-May-22 22:33N 39°54' W 075°08'0 0.0
2016-May-22 21:33N 39°54' W 075°08'0 0.0
2016-May-22 20:33N 39°54' W 075°08'0 0.0
2016-May-22 19:33N 39°54' W 075°08'0 0.0
2016-May-22 18:33N 39°54' W 075°08'0 0.0
2016-May-22 17:34N 39°54' W 075°08'0 0.4
2016-May-22 16:33N 39°54' W 075°08'0 0.0
2016-May-22 15:33N 39°54' W 075°08'0 0.0
2016-May-22 14:33N 39°54' W 075°08'5 4.6
2016-May-22 13:33N 39°58' W 075°06'9 9.3
2016-May-22 12:33N 40°04' W 074°57'9 8.1
2016-May-22 11:28N 40°08' W 074°46'1 0.7
2016-May-22 10:27N 40°07' W 074°47'2 0.2
2016-May-22 01:20N 40°08' W 074°45'7 8.2
2016-May-22 00:33N 40°05' W 074°53'10 9.9
2016-May-21 23:33N 39°60' W 075°04'7 6.7
2016-May-21 22:33N 39°54' W 075°08'3 2.5
2016-May-21 21:33N 39°53' W 075°11'0 0.0
2016-May-21 20:33N 39°53' W 075°11'0 0.0
2016-May-21 19:33N 39°53' W 075°11'0 0.0
2016-May-21 18:33N 39°53' W 075°11'4 4.4
2016-May-21 17:33N 39°51' W 075°16'0 0.2
2016-May-21 16:34N 39°51' W 075°16'0 0.0
2016-May-21 15:33N 39°51' W 075°16'0 0.0
2016-May-21 14:33N 39°51' W 075°16'0 0.3
2016-May-21 13:33N 39°51' W 075°16'0 0.3
2016-May-21 12:33N 39°51' W 075°16'0 0.0
2016-May-21 11:33N 39°51' W 075°16'4 3.7
2016-May-21 10:33N 39°51' W 075°21'0 0.4
2016-May-21 09:34N 39°51' W 075°20'7 7.2
2016-May-21 08:33N 39°53' W 075°11'0 0.0
2016-May-21 07:33N 39°53' W 075°11'0 0.0
2016-May-21 06:33N 39°53' W 075°11'0 0.0
2016-May-21 05:33N 39°53' W 075°11'0 0.0
2016-May-21 04:33N 39°53' W 075°11'0 0.0
2016-May-21 03:33N 39°53' W 075°11'0 0.0
2016-May-21 02:33N 39°53' W 075°11'0 0.0
2016-May-21 01:33N 39°53' W 075°11'0 0.0
2016-May-21 00:33N 39°53' W 075°11'0 0.0
2016-May-20 23:33N 39°53' W 075°11'0 0.0
2016-May-20 22:33N 39°53' W 075°11'1 1.2
2016-May-20 21:33N 39°53' W 075°10'1 1.2
2016-May-20 20:33N 39°53' W 075°11'5 4.5
2016-May-20 19:33N 39°51' W 075°16'2 1.6
2016-May-20 18:33N 39°51' W 075°18'4 4.1
2016-May-20 17:33N 39°52' W 075°13'2 1.9
2016-May-20 16:33N 39°53' W 075°11'0 0.0
2016-May-20 15:33N 39°53' W 075°11'0 0.0
2016-May-20 14:33N 39°53' W 075°11'0 0.0
2016-May-20 13:33N 39°53' W 075°11'0 0.0
2016-May-20 12:33N 39°53' W 075°11'0 0.0
2016-May-20 11:33N 39°53' W 075°11'0 0.0
2016-May-20 10:33N 39°53' W 075°11'0 0.0
2016-May-20 09:33N 39°53' W 075°11'0 0.0
2016-May-20 08:33N 39°53' W 075°11'0 0.0
2016-May-20 07:33N 39°53' W 075°11'0 0.0
2016-May-20 06:33N 39°53' W 075°11'0 0.0
2016-May-20 05:33N 39°53' W 075°11'0 0.0
2016-May-20 04:33N 39°53' W 075°11'0 0.0
2016-May-20 03:33N 39°53' W 075°11'0 0.0
2016-May-20 02:33N 39°53' W 075°11'0 0.0
2016-May-20 01:33N 39°53' W 075°11'1 1.3
2016-May-20 00:33N 39°53' W 075°10'0 0.1
2016-May-19 23:33N 39°53' W 075°10'2 2.3
2016-May-19 22:33N 39°52' W 075°13'1 1.4
2016-May-19 21:33N 39°53' W 075°11'0 0.0
2016-May-19 20:33N 39°53' W 075°11'0 0.0
2016-May-19 19:33N 39°53' W 075°11'0 0.0
2016-May-19 18:33N 39°53' W 075°11'0 0.0
2016-May-19 17:33N 39°53' W 075°11'0 0.0
2016-May-19 16:33N 39°53' W 075°11'0 0.0
2016-May-19 15:33N 39°53' W 075°11'0 0.0
2016-May-19 14:34N 39°53' W 075°11'  

Dump ship's entire track history